createdAt,value
2023-08-09T00:00:09.813Z,1.93
2023-08-09T00:02:38.085Z,2.10
2023-08-09T00:05:07.209Z,2.40
2023-08-09T00:07:36.523Z,2.13
2023-08-09T00:10:04.948Z,2.20
2023-08-09T00:12:32.947Z,2.00
2023-08-09T00:15:00.926Z,2.20
2023-08-09T00:17:29.054Z,2.37
2023-08-09T00:19:57.148Z,2.17
2023-08-09T00:22:25.623Z,1.90
2023-08-09T00:24:55.076Z,2.07
2023-08-09T00:27:23.052Z,1.97
2023-08-09T00:29:51.153Z,2.10
2023-08-09T00:32:19.131Z,2.07
2023-08-09T00:34:47.125Z,2.07
2023-08-09T00:37:15.317Z,1.97
2023-08-09T00:39:43.377Z,1.80
2023-08-09T00:42:12.770Z,1.57
2023-08-09T00:44:41.282Z,1.43
2023-08-09T00:47:10.791Z,1.60
2023-08-09T00:49:39.051Z,1.90
2023-08-09T00:52:07.986Z,1.80
2023-08-09T00:54:36.106Z,1.63
2023-08-09T00:57:04.442Z,1.63
2023-08-09T00:59:33.774Z,1.70
2023-08-09T01:02:01.867Z,1.40
2023-08-09T01:04:30.169Z,1.80
2023-08-09T01:07:07.307Z,1.73
2023-08-09T01:09:39.895Z,1.60
2023-08-09T01:12:10.191Z,1.93
2023-08-09T01:14:43.869Z,1.60
2023-08-09T01:17:14.371Z,1.50
2023-08-09T01:19:44.930Z,1.80
2023-08-09T01:22:16.446Z,1.60
2023-08-09T01:24:46.015Z,1.87
2023-08-09T01:27:14.236Z,1.40
2023-08-09T01:29:42.682Z,1.60
2023-08-09T01:32:12.263Z,1.57
2023-08-09T01:34:41.274Z,1.50
2023-08-09T01:37:15.468Z,1.73
2023-08-09T01:39:47.974Z,1.77
2023-08-09T01:42:16.947Z,1.73
2023-08-09T01:44:46.388Z,1.50
2023-08-09T01:47:15.686Z,1.80
2023-08-09T01:49:47.508Z,1.60
2023-08-09T01:52:15.784Z,1.33
2023-08-09T01:54:44.549Z,1.70
2023-08-09T01:57:13.945Z,1.50
2023-08-09T01:59:42.026Z,1.67
2023-08-09T02:02:10.204Z,2.07
2023-08-09T02:04:38.696Z,1.30
2023-08-09T02:07:06.876Z,1.60
2023-08-09T02:09:35.435Z,1.47
2023-08-09T02:12:03.513Z,1.40
2023-08-09T02:14:32.861Z,1.60
2023-08-09T02:17:01.372Z,1.57
2023-08-09T02:19:29.613Z,1.60
2023-08-09T02:21:57.561Z,1.47
2023-08-09T02:24:25.591Z,1.47
2023-08-09T02:26:54.031Z,1.27
2023-08-09T02:29:22.137Z,1.23
2023-08-09T02:31:51.427Z,1.57
2023-08-09T02:34:20.362Z,1.30
2023-08-09T02:36:48.457Z,1.50
2023-08-09T02:39:16.553Z,1.87
2023-08-09T02:41:45.668Z,1.87
2023-08-09T02:44:13.762Z,1.40
2023-08-09T02:46:41.716Z,1.63
2023-08-09T02:49:11.043Z,1.53
2023-08-09T02:51:39.438Z,2.50
2023-08-09T02:54:08.337Z,1.90
2023-08-09T02:56:36.421Z,1.40
2023-08-09T02:59:04.631Z,1.50
2023-08-09T03:01:32.623Z,1.80
2023-08-09T03:04:00.806Z,1.63
2023-08-09T03:06:30.187Z,1.67
2023-08-09T03:08:58.117Z,1.67
2023-08-09T03:11:27.250Z,2.03
2023-08-09T03:13:55.336Z,1.40
2023-08-09T03:16:23.747Z,1.70
2023-08-09T03:18:51.951Z,1.70
2023-08-09T03:21:19.984Z,1.47
2023-08-09T03:23:49.298Z,1.70
2023-08-09T03:26:17.337Z,1.90
2023-08-09T03:28:45.300Z,1.47
2023-08-09T03:31:13.451Z,1.77
2023-08-09T03:33:41.485Z,1.60
2023-08-09T03:36:10.165Z,1.50
2023-08-09T03:38:38.142Z,1.57
2023-08-09T03:41:07.429Z,1.50
2023-08-09T03:43:36.483Z,1.70
2023-08-09T03:46:05.789Z,1.60
2023-08-09T03:48:33.915Z,1.73
2023-08-09T03:51:01.860Z,2.00
2023-08-09T03:53:29.894Z,2.27
2023-08-09T03:55:57.906Z,2.07
2023-08-09T03:58:27.284Z,1.87
2023-08-09T04:00:55.338Z,2.10
2023-08-09T04:03:23.434Z,1.90
2023-08-09T04:05:51.434Z,1.50
2023-08-09T04:08:22.444Z,1.90
2023-08-09T04:10:50.431Z,1.83
2023-08-09T04:13:18.507Z,1.70
2023-08-09T04:15:47.895Z,1.93
2023-08-09T04:18:16.355Z,1.50
2023-08-09T04:20:46.399Z,1.67
2023-08-09T04:23:14.661Z,1.80
2023-08-09T04:25:42.751Z,1.67
2023-08-09T04:28:13.581Z,1.43
2023-08-09T04:30:42.709Z,1.60
2023-08-09T04:33:12.015Z,1.73
2023-08-09T04:35:40.129Z,1.97
2023-08-09T04:38:08.887Z,1.43
2023-08-09T04:40:37.593Z,1.60
2023-08-09T04:43:06.053Z,1.57
2023-08-09T04:45:35.010Z,1.50
2023-08-09T04:48:04.540Z,1.70
2023-08-09T04:50:34.093Z,1.80
2023-08-09T04:53:02.134Z,1.40
2023-08-09T04:55:30.117Z,1.97
2023-08-09T04:57:58.085Z,1.50
2023-08-09T05:00:26.956Z,1.90
2023-08-09T05:02:55.295Z,1.70
2023-08-09T05:05:23.453Z,1.57
2023-08-09T05:07:52.758Z,1.80
2023-08-09T05:10:20.764Z,2.07
2023-08-09T05:12:48.745Z,1.60
2023-08-09T05:15:16.761Z,1.77
2023-08-09T05:17:44.743Z,1.80
2023-08-09T05:20:13.540Z,1.80
2023-08-09T05:22:41.976Z,1.70
2023-08-09T05:25:12.228Z,1.43
2023-08-09T05:27:40.343Z,1.77
2023-08-09T05:30:10.017Z,2.07
2023-08-09T05:32:38.108Z,1.40
2023-08-09T05:35:06.942Z,1.60
2023-08-09T05:37:34.892Z,1.50
2023-08-09T05:40:04.598Z,1.33
2023-08-09T05:42:33.948Z,2.00
2023-08-09T05:45:01.942Z,1.77
2023-08-09T05:47:29.989Z,1.47
2023-08-09T05:49:58.022Z,1.90
2023-08-09T05:52:26.040Z,1.70
2023-08-09T05:54:54.249Z,1.80
2023-08-09T05:57:22.278Z,1.33
2023-08-09T05:59:51.634Z,1.60
2023-08-09T06:02:19.651Z,1.63
2023-08-09T06:04:47.831Z,1.43
2023-08-09T06:07:15.808Z,1.50
2023-08-09T06:09:44.454Z,1.80
2023-08-09T06:12:12.500Z,1.87
2023-08-09T06:14:40.483Z,1.40
2023-08-09T06:17:09.837Z,1.90
2023-08-09T06:19:37.889Z,1.77
2023-08-09T06:22:06.112Z,2.10
2023-08-09T06:24:34.180Z,1.80
2023-08-09T06:27:02.404Z,1.30
2023-08-09T06:29:30.529Z,1.70
2023-08-09T06:31:58.490Z,1.30
2023-08-09T06:34:28.409Z,1.73
2023-08-09T06:36:56.398Z,1.60
2023-08-09T06:39:25.232Z,1.97
2023-08-09T06:41:53.246Z,1.80
2023-08-09T06:44:21.258Z,1.70
2023-08-09T06:46:49.232Z,1.23
2023-08-09T06:49:18.169Z,1.47
2023-08-09T06:51:47.467Z,1.40
2023-08-09T06:54:15.515Z,1.43
2023-08-09T06:56:44.406Z,1.47
2023-08-09T06:59:12.728Z,1.47
2023-08-09T07:01:40.757Z,1.60
2023-08-09T07:04:08.883Z,1.27
2023-08-09T07:06:36.926Z,1.57
2023-08-09T07:09:06.746Z,1.50
2023-08-09T07:11:35.272Z,1.40
2023-08-09T07:14:03.292Z,1.63
2023-08-09T07:16:31.362Z,1.50
2023-08-09T07:18:59.819Z,1.50
2023-08-09T07:21:29.121Z,1.47
2023-08-09T07:23:58.608Z,1.60
2023-08-09T07:26:28.542Z,1.40
2023-08-09T07:28:56.489Z,1.10
2023-08-09T07:31:26.228Z,2.13
2023-08-09T07:33:54.641Z,1.70
2023-08-09T07:36:22.695Z,1.80
2023-08-09T07:38:50.705Z,1.27
2023-08-09T07:41:18.758Z,1.57
2023-08-09T07:43:48.097Z,1.30
2023-08-09T07:46:16.169Z,1.40
2023-08-09T07:48:44.161Z,1.60
2023-08-09T07:51:13.299Z,2.00
2023-08-09T07:53:43.388Z,1.70
2023-08-09T07:56:12.797Z,1.60
2023-08-09T07:58:40.818Z,1.37
2023-08-09T08:01:10.245Z,1.73
2023-08-09T08:03:38.430Z,1.40
2023-08-09T08:06:07.055Z,1.90
2023-08-09T08:08:35.379Z,1.67
2023-08-09T08:11:03.694Z,1.67
2023-08-09T08:13:31.751Z,1.87
2023-08-09T08:15:59.818Z,1.93
2023-08-09T08:18:29.296Z,1.50
2023-08-09T08:20:57.303Z,1.60
2023-08-09T08:23:25.306Z,1.30
2023-08-09T08:25:53.291Z,1.73
2023-08-09T08:28:21.349Z,3.30
2023-08-09T08:30:49.370Z,1.80
2023-08-09T08:33:18.649Z,2.00
2023-08-09T08:35:55.520Z,1.87
2023-08-09T08:38:27.883Z,1.70
2023-08-09T08:40:56.518Z,1.73
2023-08-09T08:43:25.047Z,1.67
2023-08-09T08:45:54.462Z,1.90
2023-08-09T08:48:23.737Z,1.70
2023-08-09T08:50:56.097Z,1.70
2023-08-09T08:53:24.278Z,2.03
2023-08-09T08:55:52.552Z,1.70
2023-08-09T08:58:20.595Z,1.80
2023-08-09T09:00:49.675Z,1.70
2023-08-09T09:03:17.733Z,1.50
2023-08-09T09:05:45.837Z,1.97
2023-08-09T09:08:16.192Z,1.80
2023-08-09T09:10:46.589Z,2.13
2023-08-09T09:13:26.193Z,1.80
2023-08-09T09:15:55.626Z,1.77
2023-08-09T09:18:24.891Z,1.70
2023-08-09T09:20:55.864Z,1.83
2023-08-09T09:23:29.581Z,2.47
2023-08-09T09:26:09.428Z,2.10
2023-08-09T09:28:40.725Z,1.83
2023-08-09T09:31:08.852Z,1.67
2023-08-09T09:33:38.224Z,2.20
2023-08-09T09:36:06.800Z,1.40
2023-08-09T09:38:36.238Z,2.20
2023-08-09T09:41:04.641Z,2.10
2023-08-09T09:43:34.156Z,2.30
2023-08-09T09:46:02.486Z,2.10
2023-08-09T09:48:31.359Z,2.20
2023-08-09T09:51:03.912Z,2.17
2023-08-09T09:53:34.701Z,2.13
2023-08-09T09:56:04.161Z,1.70
2023-08-09T09:58:32.283Z,2.07
2023-08-09T10:01:02.869Z,1.97
2023-08-09T10:03:40.011Z,1.93
2023-08-09T10:06:22.728Z,1.80
2023-08-09T10:08:53.052Z,2.63
2023-08-09T10:11:25.598Z,1.60
2023-08-09T10:13:56.659Z,1.80
2023-08-09T10:16:26.174Z,1.80
2023-08-09T10:18:59.635Z,1.77
2023-08-09T10:21:28.461Z,1.90
2023-08-09T10:23:58.207Z,2.27
2023-08-09T10:26:31.446Z,2.00
2023-08-09T10:29:07.822Z,1.80
2023-08-09T10:31:50.010Z,2.00
2023-08-09T10:34:18.973Z,1.60
2023-08-09T10:36:55.468Z,1.87
2023-08-09T10:39:25.505Z,2.40
2023-08-09T10:42:04.080Z,1.90
2023-08-09T10:44:40.911Z,1.63
2023-08-09T10:47:12.310Z,1.63
2023-08-09T10:49:58.482Z,2.00
2023-08-09T10:52:35.870Z,1.87
2023-08-09T10:55:30.593Z,1.80
2023-08-09T10:58:02.526Z,1.40
2023-08-09T11:00:39.662Z,1.80
2023-08-09T11:03:09.301Z,1.63
2023-08-09T11:05:38.927Z,1.37
2023-08-09T11:08:18.470Z,1.60
2023-08-09T11:10:47.443Z,1.90
2023-08-09T11:13:19.977Z,2.20
2023-08-09T11:15:49.360Z,1.60
2023-08-09T11:18:17.775Z,1.70
2023-08-09T11:20:46.505Z,1.40
2023-08-09T11:23:14.713Z,1.97
2023-08-09T11:25:43.017Z,1.77
2023-08-09T11:28:14.969Z,2.13
2023-08-09T11:30:46.692Z,1.50
2023-08-09T11:33:15.084Z,1.60
2023-08-09T11:35:45.658Z,2.03
2023-08-09T11:38:15.392Z,1.50
2023-08-09T11:40:45.908Z,1.87
2023-08-09T11:43:16.342Z,1.70
2023-08-09T11:45:54.841Z,1.60
2023-08-09T11:48:28.171Z,1.70
2023-08-09T11:51:13.046Z,1.70
2023-08-09T11:53:42.934Z,1.60
2023-08-09T11:56:14.273Z,1.50
2023-08-09T11:58:44.975Z,2.07
2023-08-09T12:01:22.601Z,1.63
2023-08-09T12:03:53.246Z,1.57
2023-08-09T12:06:37.023Z,1.50
2023-08-09T12:09:27.748Z,1.83
2023-08-09T12:11:55.916Z,1.60
2023-08-09T12:14:23.918Z,1.63
2023-08-09T12:16:56.315Z,1.47
2023-08-09T12:19:24.423Z,2.13
2023-08-09T12:21:52.390Z,1.67
2023-08-09T12:24:20.399Z,1.43
2023-08-09T12:26:48.387Z,1.57
2023-08-09T12:29:16.802Z,1.23
2023-08-09T12:31:44.880Z,1.63
2023-08-09T12:34:14.917Z,1.70
2023-08-09T12:36:43.058Z,1.57
2023-08-09T12:39:12.334Z,1.53
2023-08-09T12:41:40.569Z,1.60
2023-08-09T12:44:09.256Z,1.60
2023-08-09T12:46:37.699Z,1.57
2023-08-09T12:49:06.738Z,1.60
2023-08-09T12:51:36.655Z,1.87
2023-08-09T12:54:05.023Z,1.70
2023-08-09T12:56:33.009Z,1.63
2023-08-09T12:59:02.032Z,1.87
2023-08-09T13:01:30.274Z,1.90
2023-08-09T13:03:58.367Z,1.97
2023-08-09T13:06:26.462Z,1.60
2023-08-09T13:08:55.851Z,2.10
2023-08-09T13:11:23.859Z,1.70
2023-08-09T13:13:51.872Z,2.03
2023-08-09T13:16:19.924Z,1.40
2023-08-09T13:18:47.910Z,1.50
2023-08-09T13:21:17.926Z,1.70
2023-08-09T13:23:46.388Z,1.90
2023-08-09T13:26:15.865Z,1.73
2023-08-09T13:28:43.963Z,2.43
2023-08-09T13:31:12.139Z,2.00
2023-08-09T13:33:40.152Z,2.17
2023-08-09T13:36:08.322Z,1.70
2023-08-09T13:38:41.544Z,1.90
2023-08-09T13:41:10.333Z,1.93
2023-08-09T13:43:39.903Z,2.00
2023-08-09T13:46:08.843Z,1.77
2023-08-09T13:48:37.336Z,2.07
2023-08-09T13:51:07.355Z,2.00
2023-08-09T13:53:35.855Z,1.70
2023-08-09T13:56:03.930Z,2.03
2023-08-09T13:58:31.015Z,1.97
2023-08-09T14:01:00.415Z,1.77
2023-08-09T14:03:30.107Z,1.93
2023-08-09T14:05:58.174Z,1.80
2023-08-09T14:08:26.186Z,1.50
2023-08-09T14:10:54.252Z,1.97
2023-08-09T14:13:22.405Z,1.97
2023-08-09T14:15:51.153Z,1.80
2023-08-09T14:18:23.086Z,1.77
2023-08-09T14:20:51.242Z,2.00
2023-08-09T14:23:19.250Z,1.17
2023-08-09T14:25:47.278Z,1.73
2023-08-09T14:28:15.298Z,2.03
2023-08-09T14:30:43.413Z,1.77
2023-08-09T14:33:12.280Z,1.70
2023-08-09T14:35:41.692Z,2.00
2023-08-09T14:38:10.104Z,1.80
2023-08-09T14:40:38.546Z,1.60
2023-08-09T14:43:06.549Z,1.80
2023-08-09T14:45:35.215Z,1.33
2023-08-09T14:48:03.234Z,1.30
2023-08-09T14:50:31.303Z,1.60
2023-08-09T14:53:00.698Z,1.63
2023-08-09T14:55:29.886Z,1.83
2023-08-09T14:57:58.616Z,1.60
2023-08-09T15:00:29.178Z,1.57
2023-08-09T15:02:57.351Z,1.80
2023-08-09T15:05:25.584Z,1.80
2023-08-09T15:07:57.018Z,1.63
2023-08-09T15:10:27.953Z,1.57
2023-08-09T15:12:58.753Z,1.93
2023-08-09T15:15:30.274Z,1.47
2023-08-09T15:17:59.288Z,1.97
2023-08-09T15:20:27.651Z,1.70
2023-08-09T15:22:58.755Z,1.47
2023-08-09T15:25:28.390Z,1.30
2023-08-09T15:27:56.429Z,1.77
2023-08-09T15:30:25.239Z,1.50
2023-08-09T15:32:53.627Z,1.50
2023-08-09T15:35:23.464Z,1.90
2023-08-09T15:37:52.090Z,1.30
2023-08-09T15:40:20.479Z,1.27
2023-08-09T15:42:49.820Z,1.50
2023-08-09T15:45:17.853Z,1.80
2023-08-09T15:47:47.641Z,1.67
2023-08-09T15:50:16.041Z,1.90
2023-08-09T15:52:44.123Z,2.00
2023-08-09T15:55:12.277Z,1.90
2023-08-09T15:57:40.247Z,1.83
2023-08-09T16:00:13.279Z,1.43
2023-08-09T16:02:41.433Z,1.80
2023-08-09T16:05:10.473Z,1.43
2023-08-09T16:07:38.450Z,1.73
2023-08-09T16:10:07.496Z,1.90
2023-08-09T16:12:35.483Z,1.60
2023-08-09T16:15:03.758Z,1.70
2023-08-09T16:17:33.227Z,1.73
2023-08-09T16:20:02.371Z,1.60
2023-08-09T16:22:30.945Z,1.70
2023-08-09T16:24:58.966Z,1.53
2023-08-09T16:27:26.996Z,1.23
2023-08-09T16:29:54.988Z,1.33
2023-08-09T16:32:22.967Z,1.67
2023-08-09T16:34:52.317Z,1.27
2023-08-09T16:37:20.299Z,1.63
2023-08-09T16:39:49.538Z,1.43
2023-08-09T16:42:18.522Z,1.90
2023-08-09T16:44:46.539Z,1.57
2023-08-09T16:47:14.533Z,1.67
2023-08-09T16:49:42.496Z,1.90
2023-08-09T16:52:11.850Z,1.73
2023-08-09T16:54:39.818Z,1.73
2023-08-09T16:57:07.763Z,1.80
2023-08-09T16:59:35.856Z,1.67
2023-08-09T17:02:05.127Z,1.33
2023-08-09T17:04:33.361Z,1.60
2023-08-09T17:07:02.158Z,2.03
2023-08-09T17:09:31.785Z,1.97
2023-08-09T17:11:59.749Z,1.80
2023-08-09T17:14:27.731Z,2.00
2023-08-09T17:16:55.700Z,1.77
2023-08-09T17:19:26.794Z,2.10
2023-08-09T17:21:55.191Z,2.00
2023-08-09T17:24:24.270Z,2.03
2023-08-09T17:26:53.623Z,1.60
2023-08-09T17:29:21.594Z,2.10
2023-08-09T17:31:49.677Z,2.10
2023-08-09T17:34:17.667Z,1.77
2023-08-09T17:36:45.654Z,1.73
2023-08-09T17:39:14.145Z,1.80
2023-08-09T17:41:42.595Z,1.80
2023-08-09T17:44:11.928Z,1.90
2023-08-09T17:46:39.933Z,1.93
2023-08-09T17:49:07.931Z,2.23
2023-08-09T17:51:36.708Z,2.20
2023-08-09T17:54:05.077Z,2.00
2023-08-09T17:56:33.047Z,2.17
2023-08-09T17:59:01.278Z,2.60
2023-08-09T18:01:30.593Z,2.30
2023-08-09T18:03:58.670Z,2.00
2023-08-09T18:06:26.955Z,1.50
2023-08-09T18:08:55.060Z,2.03
2023-08-09T18:11:23.074Z,1.90
2023-08-09T18:13:51.066Z,2.10
2023-08-09T18:16:19.189Z,2.10
2023-08-09T18:18:48.656Z,2.10
2023-08-09T18:21:17.641Z,2.40
2023-08-09T18:23:45.604Z,2.30
2023-08-09T18:26:13.606Z,2.60
2023-08-09T18:28:41.586Z,2.23
2023-08-09T18:31:09.587Z,2.23
2023-08-09T18:33:37.617Z,2.60
2023-08-09T18:36:07.122Z,2.93
2023-08-09T18:38:35.238Z,2.80
2023-08-09T18:41:03.996Z,2.50
2023-08-09T18:43:32.151Z,2.80
2023-08-09T18:46:00.374Z,2.70
2023-08-09T18:48:28.355Z,2.57
2023-08-09T18:50:56.513Z,2.80
2023-08-09T18:53:25.950Z,2.40
2023-08-09T18:55:53.927Z,2.80
2023-08-09T18:58:22.208Z,2.90
2023-08-09T19:00:51.769Z,2.57
2023-08-09T19:03:20.064Z,2.53
2023-08-09T19:05:48.454Z,3.00
2023-08-09T19:08:16.466Z,2.87
2023-08-09T19:10:46.581Z,2.73
2023-08-09T19:13:14.648Z,2.80
2023-08-09T19:15:42.676Z,2.80
2023-08-09T19:18:10.723Z,2.67
2023-08-09T19:20:39.958Z,2.80
2023-08-09T19:23:08.735Z,2.67
2023-08-09T19:25:36.884Z,3.20
2023-08-09T19:28:07.222Z,2.27
2023-08-09T19:30:35.226Z,2.70
2023-08-09T19:33:03.334Z,2.87
2023-08-09T19:35:31.375Z,2.67
2023-08-09T19:37:59.447Z,2.90
2023-08-09T19:40:31.222Z,2.93
2023-08-09T19:42:59.384Z,3.13
2023-08-09T19:45:28.860Z,3.37
2023-08-09T19:48:00.103Z,2.60
2023-08-09T19:50:28.941Z,3.40
2023-08-09T19:52:57.016Z,3.10
2023-08-09T19:55:24.992Z,2.77
2023-08-09T19:57:53.993Z,2.87
2023-08-09T20:00:23.441Z,3.57
2023-08-09T20:02:53.079Z,3.47
2023-08-09T20:05:21.877Z,3.10
2023-08-09T20:07:50.677Z,3.33
2023-08-09T20:10:18.743Z,3.20
2023-08-09T20:12:46.886Z,3.30
2023-08-09T20:15:14.824Z,3.37
2023-08-09T20:17:42.854Z,3.50
2023-08-09T20:20:13.095Z,3.87
2023-08-09T20:22:41.094Z,3.70
2023-08-09T20:25:09.874Z,3.23
2023-08-09T20:27:37.836Z,3.27
2023-08-09T20:30:07.383Z,3.20
2023-08-09T20:32:35.479Z,4.03
2023-08-09T20:35:04.182Z,4.20
2023-08-09T20:37:33.828Z,3.40
2023-08-09T20:40:01.798Z,3.77
2023-08-09T20:42:29.984Z,3.67
2023-08-09T20:44:57.996Z,3.70
2023-08-09T20:47:25.974Z,4.20
2023-08-09T20:49:54.005Z,3.90
2023-08-09T20:52:22.477Z,3.80
2023-08-09T20:54:51.784Z,4.40
2023-08-09T20:57:19.753Z,4.47
2023-08-09T20:59:47.761Z,4.43
2023-08-09T21:02:15.952Z,4.07
2023-08-09T21:04:44.337Z,3.90
2023-08-09T21:07:12.426Z,4.17
2023-08-09T21:09:40.389Z,4.33
2023-08-09T21:12:10.071Z,4.33
2023-08-09T21:14:39.570Z,4.20
2023-08-09T21:17:07.580Z,4.13
2023-08-09T21:19:35.805Z,4.20
2023-08-09T21:22:04.051Z,3.17
2023-08-09T21:24:32.215Z,3.40
2023-08-09T21:27:00.234Z,3.03
2023-08-09T21:29:32.156Z,2.90
2023-08-09T21:32:01.164Z,3.10
2023-08-09T21:34:29.180Z,3.50
2023-08-09T21:36:57.406Z,4.03
2023-08-09T21:39:25.431Z,3.57
2023-08-09T21:41:53.432Z,2.90
2023-08-09T21:44:21.596Z,2.80
2023-08-09T21:46:51.007Z,3.30
2023-08-09T21:49:18.979Z,3.50
2023-08-09T21:51:46.990Z,2.87
2023-08-09T21:54:14.949Z,3.30
2023-08-09T21:56:43.030Z,2.90
2023-08-09T21:59:10.996Z,3.30
2023-08-09T22:01:40.132Z,2.77
2023-08-09T22:04:09.634Z,2.97
2023-08-09T22:06:37.605Z,3.27
2023-08-09T22:09:06.370Z,2.70
2023-08-09T22:11:34.474Z,3.07
2023-08-09T22:14:02.506Z,2.93
2023-08-09T22:16:30.561Z,3.40
2023-08-09T22:19:19.360Z,2.90
2023-08-09T22:24:20.479Z,3.53
2023-08-09T22:26:48.452Z,3.20
2023-08-09T22:29:16.499Z,2.80
2023-08-09T22:31:44.565Z,3.20
2023-08-09T22:34:12.569Z,3.17
2023-08-09T22:36:42.245Z,3.10
2023-08-09T22:39:10.179Z,3.00
2023-08-09T22:41:38.157Z,2.93
2023-08-09T22:44:06.541Z,3.10
2023-08-09T22:46:34.521Z,2.50
2023-08-09T22:49:02.577Z,2.73
2023-08-09T22:51:30.615Z,2.63
2023-08-09T22:54:00.212Z,2.30
2023-08-09T22:56:29.080Z,2.60
2023-08-09T22:58:57.068Z,2.30
2023-08-09T23:01:25.144Z,2.40
2023-08-09T23:03:53.274Z,2.63
2023-08-09T23:06:21.223Z,2.60
2023-08-09T23:08:49.201Z,2.93
2023-08-09T23:11:18.540Z,2.53
2023-08-09T23:13:46.518Z,2.40
2023-08-09T23:16:14.908Z,2.20
2023-08-09T23:18:42.946Z,2.57
2023-08-09T23:21:11.099Z,2.27
2023-08-09T23:23:39.222Z,2.57
2023-08-09T23:26:08.347Z,2.50
2023-08-09T23:28:37.717Z,2.50
2023-08-09T23:31:05.793Z,2.43
2023-08-09T23:33:33.873Z,3.10
2023-08-09T23:36:02.118Z,3.60
2023-08-09T23:38:30.364Z,3.00
2023-08-09T23:40:58.365Z,3.10
2023-08-09T23:43:26.337Z,2.77
2023-08-09T23:45:55.645Z,2.63
2023-08-09T23:48:24.097Z,2.23
2023-08-09T23:50:52.091Z,2.43
2023-08-09T23:53:20.164Z,2.80
2023-08-09T23:55:48.116Z,2.60
2023-08-09T23:58:16.077Z,2.60
